createdAt,value
2019-02-17T00:01:49.365Z,101372.47
2019-02-17T00:04:17.917Z,101376.48
2019-02-17T00:06:46.509Z,101379.97
2019-02-17T00:09:15.348Z,101385.16
2019-02-17T00:11:43.945Z,101378.66
2019-02-17T00:14:12.501Z,101380.11
2019-02-17T00:16:41.059Z,101371.59
2019-02-17T00:19:09.658Z,101369.88
2019-02-17T00:21:38.217Z,101374.34
2019-02-17T00:24:06.779Z,101381.67
2019-02-17T00:26:35.368Z,101383.91
2019-02-17T00:29:03.947Z,101383.66
2019-02-17T00:31:32.541Z,101383.30
2019-02-17T00:34:01.095Z,101378.49
2019-02-17T00:36:29.674Z,101377.14
2019-02-17T00:38:58.268Z,101376.87
2019-02-17T00:41:26.828Z,101381.19
2019-02-17T00:43:55.381Z,101382.49
2019-02-17T00:46:23.970Z,101383.40
2019-02-17T00:48:52.526Z,101383.42
2019-02-17T00:51:21.110Z,101385.81
2019-02-17T00:53:49.704Z,101387.53
2019-02-17T00:56:18.253Z,101379.33
2019-02-17T00:58:46.810Z,101380.64
2019-02-17T01:01:15.406Z,101387.16
2019-02-17T01:03:43.958Z,101380.78
2019-02-17T01:06:12.572Z,101378.25
2019-02-17T01:08:41.111Z,101374.92
2019-02-17T01:11:09.668Z,101378.58
2019-02-17T01:13:38.256Z,101377.59
2019-02-17T01:16:07.169Z,101377.27
2019-02-17T01:18:35.760Z,101370.09
2019-02-17T01:21:04.316Z,101374.44
2019-02-17T01:23:32.873Z,101379.16
2019-02-17T01:26:01.463Z,101374.20
2019-02-17T01:28:30.055Z,101378.20
2019-02-17T01:30:58.639Z,101374.67
2019-02-17T01:33:27.237Z,101376.21
2019-02-17T01:35:55.796Z,101377.29
2019-02-17T01:38:24.354Z,101370.55
2019-02-17T01:40:52.950Z,101367.44
2019-02-17T01:43:21.518Z,101370.95
2019-02-17T01:45:50.076Z,101362.22
2019-02-17T01:48:18.762Z,101367.67
2019-02-17T01:50:47.322Z,101358.26
2019-02-17T01:53:15.942Z,101362.05
2019-02-17T01:55:46.945Z,101366.39
2019-02-17T01:58:14.809Z,101361.92
2019-02-17T02:00:43.398Z,101357.45
2019-02-17T02:03:11.959Z,101349.00
2019-02-17T02:05:40.513Z,101353.70
2019-02-17T02:08:09.110Z,101350.05
2019-02-17T02:10:37.668Z,101353.09
2019-02-17T02:13:06.998Z,101347.21
2019-02-17T02:15:35.970Z,101345.84
2019-02-17T02:18:05.375Z,101343.41
2019-02-17T02:20:35.068Z,101346.84
2019-02-17T02:23:04.802Z,101341.23
2019-02-17T02:25:34.920Z,101332.75
2019-02-17T02:28:04.601Z,101335.76
2019-02-17T02:30:34.358Z,101330.41
2019-02-17T02:33:04.023Z,101336.25
2019-02-17T02:35:33.741Z,101334.78
2019-02-17T02:38:03.174Z,101331.64
2019-02-17T02:40:32.950Z,101325.77
2019-02-17T02:43:02.483Z,101328.91
2019-02-17T02:45:31.079Z,101324.12
2019-02-17T02:47:59.646Z,101325.42
2019-02-17T02:50:28.672Z,101322.77
2019-02-17T02:52:58.511Z,101325.31
2019-02-17T02:55:27.450Z,101330.96
2019-02-17T02:57:56.792Z,101322.21
2019-02-17T03:00:26.440Z,101319.62
2019-02-17T03:02:55.768Z,101318.04
2019-02-17T03:05:25.410Z,101314.59
2019-02-17T03:07:54.680Z,101314.52
2019-02-17T03:10:24.411Z,101310.71
2019-02-17T03:12:54.094Z,101313.58
2019-02-17T03:15:23.795Z,101318.44
2019-02-17T03:17:53.228Z,101317.69
2019-02-17T03:20:22.588Z,101314.43
2019-02-17T03:22:52.313Z,101308.17
2019-02-17T03:25:22.160Z,101315.84
2019-02-17T03:27:51.823Z,101316.00
2019-02-17T03:30:23.418Z,101321.19
2019-02-17T03:32:53.240Z,101319.32
2019-02-17T03:35:23.140Z,101315.79
2019-02-17T03:37:53.034Z,101320.65
2019-02-17T03:40:22.932Z,101320.73
2019-02-17T03:42:52.735Z,101323.23
2019-02-17T03:45:22.392Z,101319.55
2019-02-17T03:47:51.734Z,101319.97
2019-02-17T03:50:21.343Z,101315.09
2019-02-17T03:52:51.083Z,101318.61
2019-02-17T03:55:20.627Z,101314.45
2019-02-17T03:57:50.264Z,101314.70
2019-02-17T04:00:18.837Z,101315.02
2019-02-17T04:02:48.423Z,101317.66
2019-02-17T04:05:17.822Z,101308.06
2019-02-17T04:07:47.544Z,101314.80
2019-02-17T04:10:16.097Z,101313.25
2019-02-17T04:12:45.083Z,101316.95
2019-02-17T04:15:14.143Z,101311.17
2019-02-17T04:17:43.415Z,101322.27
2019-02-17T04:20:12.370Z,101321.41
2019-02-17T04:22:40.939Z,101315.28
2019-02-17T04:25:09.819Z,101319.42
2019-02-17T04:27:38.988Z,101313.87
2019-02-17T04:30:07.619Z,101306.39
2019-02-17T04:32:36.882Z,101304.55
2019-02-17T04:35:06.281Z,101296.88
2019-02-17T04:37:35.175Z,101305.17
2019-02-17T04:40:04.091Z,101304.95
2019-02-17T04:42:33.017Z,101304.64
2019-02-17T04:45:01.592Z,101296.63
2019-02-17T04:47:30.939Z,101303.49
2019-02-17T04:49:59.524Z,101295.11
2019-02-17T04:52:28.158Z,101283.95
2019-02-17T04:54:57.103Z,101286.31
2019-02-17T04:57:26.165Z,101288.98
2019-02-17T04:59:54.734Z,101295.60
2019-02-17T05:02:23.286Z,101290.18
2019-02-17T05:04:51.879Z,101286.55
2019-02-17T05:07:21.080Z,101283.95
2019-02-17T05:09:50.307Z,101284.23
2019-02-17T05:12:18.888Z,101288.16
2019-02-17T05:14:47.824Z,101285.08
2019-02-17T05:17:16.751Z,101278.08
2019-02-17T05:19:45.313Z,101275.03
2019-02-17T05:22:13.963Z,101280.00
2019-02-17T05:24:42.937Z,101282.23
2019-02-17T05:27:11.493Z,101281.27
2019-02-17T05:29:40.124Z,101277.84
2019-02-17T05:32:08.807Z,101279.14
2019-02-17T05:34:37.801Z,101273.45
2019-02-17T05:37:06.352Z,101273.92
2019-02-17T05:39:35.651Z,101270.63
2019-02-17T05:42:04.920Z,101273.69
2019-02-17T05:44:33.475Z,101271.67
2019-02-17T05:47:03.038Z,101266.46
2019-02-17T05:49:32.696Z,101270.97
2019-02-17T05:52:02.331Z,101264.92
2019-02-17T05:54:31.664Z,101268.64
2019-02-17T05:57:01.103Z,101264.80
2019-02-17T05:59:30.507Z,101265.38
2019-02-17T06:02:00.179Z,101266.55
2019-02-17T06:04:29.661Z,101267.06
2019-02-17T06:06:59.330Z,101270.80
2019-02-17T06:09:29.011Z,101266.09
2019-02-17T06:11:58.338Z,101270.95
2019-02-17T06:14:28.057Z,101269.65
2019-02-17T06:16:56.959Z,101266.83
2019-02-17T06:19:26.351Z,101264.73
2019-02-17T06:21:56.059Z,101260.92
2019-02-17T06:24:25.508Z,101262.53
2019-02-17T06:26:54.798Z,101267.73
2019-02-17T06:29:24.182Z,101270.22
2019-02-17T06:31:53.540Z,101261.30
2019-02-17T06:34:22.432Z,101268.04
2019-02-17T06:36:51.379Z,101263.52
2019-02-17T06:39:21.668Z,101266.77
2019-02-17T06:41:51.331Z,101271.87
2019-02-17T06:44:20.702Z,101275.98
2019-02-17T06:46:54.332Z,101277.59
2019-02-17T06:49:23.846Z,101276.55
2019-02-17T06:51:52.804Z,101277.51
2019-02-17T06:54:22.536Z,101276.97
2019-02-17T06:57:05.602Z,101271.05
2019-02-17T06:59:35.271Z,101268.12
2019-02-17T07:02:04.990Z,101271.70
2019-02-17T07:04:56.122Z,101271.31
2019-02-17T07:07:25.826Z,101272.38
2019-02-17T07:09:55.803Z,101268.11
2019-02-17T07:12:42.547Z,101269.02
2019-02-17T07:15:11.632Z,101273.25
2019-02-17T07:17:41.030Z,101272.08
2019-02-17T07:20:10.756Z,101263.56
2019-02-17T07:22:40.132Z,101263.03
2019-02-17T07:25:09.462Z,101267.81
2019-02-17T07:27:38.506Z,101258.83
2019-02-17T07:30:08.261Z,101261.22
2019-02-17T07:32:37.825Z,101261.15
2019-02-17T07:35:06.957Z,101257.76
2019-02-17T07:37:36.350Z,101258.11
2019-02-17T07:40:06.039Z,101258.81
2019-02-17T07:42:35.349Z,101256.79
2019-02-17T07:45:04.754Z,101254.52
2019-02-17T07:47:33.739Z,101256.09
2019-02-17T07:50:02.745Z,101254.91
2019-02-17T07:52:31.304Z,101253.16
2019-02-17T07:55:00.370Z,101247.44
2019-02-17T07:57:29.338Z,101252.85
2019-02-17T07:59:58.721Z,101244.85
2019-02-17T08:02:28.008Z,101250.09
2019-02-17T08:04:57.058Z,101246.27
2019-02-17T08:07:26.554Z,101238.23
2019-02-17T08:09:56.233Z,101244.84
2019-02-17T08:12:25.587Z,101238.34
2019-02-17T08:14:54.549Z,101244.25
2019-02-17T08:17:24.299Z,101244.78
2019-02-17T08:19:53.504Z,101240.21
2019-02-17T08:22:22.398Z,101240.19
2019-02-17T08:24:51.345Z,101238.53
2019-02-17T08:27:19.910Z,101231.92
2019-02-17T08:29:48.487Z,101231.92
2019-02-17T08:32:17.433Z,101233.56
2019-02-17T08:34:45.983Z,101236.94
2019-02-17T08:37:14.919Z,101229.56
2019-02-17T08:39:43.507Z,101231.84
2019-02-17T08:42:12.054Z,101229.02
2019-02-17T08:44:40.610Z,101224.16
2019-02-17T08:47:09.269Z,101218.05
2019-02-17T08:49:37.852Z,101214.30
2019-02-17T08:52:07.122Z,101216.98
2019-02-17T08:54:35.706Z,101211.61
2019-02-17T08:57:04.744Z,101217.08
2019-02-17T08:59:34.491Z,101213.52
2019-02-17T09:02:05.941Z,101217.32
2019-02-17T09:04:34.789Z,101214.73
2019-02-17T09:07:03.671Z,101210.81
2019-02-17T09:09:33.290Z,101209.33
2019-02-17T09:12:02.481Z,101209.42
2019-02-17T09:14:32.066Z,101209.55
2019-02-17T09:17:01.355Z,101206.32
2019-02-17T09:19:31.080Z,101199.61
2019-02-17T09:22:02.802Z,101193.53
2019-02-17T09:24:32.133Z,101197.81
2019-02-17T09:27:00.804Z,101191.28
2019-02-17T09:29:30.432Z,101188.20
2019-02-17T09:31:59.533Z,101189.63
2019-02-17T09:34:28.171Z,101183.00
2019-02-17T09:36:57.479Z,101180.13
2019-02-17T09:39:26.371Z,101179.35
2019-02-17T09:41:54.923Z,101180.78
2019-02-17T09:44:23.489Z,101175.17
2019-02-17T09:46:52.079Z,101179.39
2019-02-17T09:49:21.359Z,101175.19
2019-02-17T09:51:50.365Z,101170.27
2019-02-17T09:54:18.968Z,101163.77
2019-02-17T09:56:47.574Z,101163.70
2019-02-17T09:59:16.149Z,101157.85
2019-02-17T10:01:44.706Z,101158.86
2019-02-17T10:04:13.309Z,101155.39
2019-02-17T10:06:41.868Z,101145.20
2019-02-17T10:09:10.426Z,101147.72
2019-02-17T10:11:39.022Z,101145.46
2019-02-17T10:14:07.577Z,101150.70
2019-02-17T10:16:36.134Z,101141.41
2019-02-17T10:19:04.722Z,101143.22
2019-02-17T10:21:33.355Z,101131.23
2019-02-17T10:24:01.914Z,101129.73
2019-02-17T10:26:30.481Z,101127.68
2019-02-17T10:28:59.082Z,101124.05
2019-02-17T10:31:27.635Z,101115.91
2019-02-17T10:33:56.215Z,101106.77
2019-02-17T10:36:24.842Z,101115.71
2019-02-17T10:38:53.399Z,101094.10
2019-02-17T10:41:22.285Z,101094.10
2019-02-17T10:43:50.886Z,101098.30
2019-02-17T10:46:19.440Z,101100.70
2019-02-17T10:48:48.002Z,101088.99
2019-02-17T10:51:16.586Z,101092.59
2019-02-17T10:53:45.510Z,101088.55
2019-02-17T10:56:14.092Z,101085.30
2019-02-17T10:58:42.683Z,101085.78
2019-02-17T11:01:11.251Z,101085.78
2019-02-17T11:03:39.866Z,101081.25
2019-02-17T11:06:08.433Z,101084.09
2019-02-17T11:08:37.000Z,101082.17
2019-02-17T11:11:05.604Z,101079.16
2019-02-17T11:13:34.174Z,101074.67
2019-02-17T11:16:02.761Z,101072.06
2019-02-17T11:18:31.369Z,101068.27
2019-02-17T11:21:00.347Z,101062.53
2019-02-17T11:23:28.957Z,101055.95
2019-02-17T11:25:58.277Z,101054.23
2019-02-17T11:28:27.681Z,101052.75
2019-02-17T11:30:57.087Z,101046.92
2019-02-17T11:33:26.738Z,101044.17
2019-02-17T11:35:56.032Z,101033.02
2019-02-17T11:38:25.711Z,101035.56
2019-02-17T11:40:54.378Z,101027.31
2019-02-17T11:43:23.618Z,101028.19
2019-02-17T11:45:53.310Z,101033.83
2019-02-17T11:48:23.052Z,101032.29
2019-02-17T11:50:52.352Z,101032.12
2019-02-17T11:53:21.717Z,101024.86
2019-02-17T11:55:52.291Z,101027.05
2019-02-17T11:58:21.869Z,101024.56
2019-02-17T12:00:51.199Z,101022.84
2019-02-17T12:03:20.825Z,101017.52
2019-02-17T12:05:50.065Z,101007.97
2019-02-17T12:08:19.476Z,101002.64
2019-02-17T12:10:48.774Z,101002.64
2019-02-17T12:13:18.528Z,100997.77
2019-02-17T12:15:48.022Z,100995.78
2019-02-17T12:18:17.221Z,100991.56
2019-02-17T12:20:57.551Z,100986.13
2019-02-17T12:23:41.901Z,100988.84
2019-02-17T12:26:27.508Z,100983.11
2019-02-17T12:29:19.621Z,100980.53
2019-02-17T12:31:48.581Z,100974.73
2019-02-17T12:34:17.644Z,100975.61
2019-02-17T12:36:47.167Z,100966.83
2019-02-17T12:39:15.764Z,100963.03
2019-02-17T12:41:44.637Z,100958.98
2019-02-17T12:44:13.595Z,100954.05
2019-02-17T12:46:43.344Z,100956.03
2019-02-17T12:49:13.018Z,100950.09
2019-02-17T12:51:42.388Z,100950.41
2019-02-17T12:54:11.368Z,100948.98
2019-02-17T12:56:40.327Z,100952.89
2019-02-17T12:59:09.576Z,100944.05
2019-02-17T13:01:38.567Z,100940.57
2019-02-17T13:04:07.839Z,100937.31
2019-02-17T13:06:36.396Z,100936.68
2019-02-17T13:09:06.955Z,100936.40
2019-02-17T13:11:35.519Z,100931.44
2019-02-17T13:14:04.097Z,100923.27
2019-02-17T13:16:32.651Z,100924.89
2019-02-17T13:19:01.241Z,100918.73
2019-02-17T13:21:29.857Z,100915.52
2019-02-17T13:23:58.441Z,100915.76
2019-02-17T13:26:26.992Z,100913.03
2019-02-17T13:28:55.644Z,100911.75
2019-02-17T13:31:24.236Z,100915.75
2019-02-17T13:33:52.795Z,100901.84
2019-02-17T13:36:21.356Z,100910.69
2019-02-17T13:38:49.940Z,100906.09
2019-02-17T13:41:18.497Z,100903.02
2019-02-17T13:43:47.051Z,100908.41
2019-02-17T13:46:16.111Z,100902.72
2019-02-17T13:48:44.744Z,100904.03
2019-02-17T13:51:13.294Z,100896.48
2019-02-17T13:53:41.883Z,100893.23
2019-02-17T13:56:10.437Z,100891.59
2019-02-17T13:58:39.023Z,100894.59
2019-02-17T14:01:07.601Z,100886.55
2019-02-17T14:03:36.161Z,100876.68
2019-02-17T14:06:04.749Z,100876.53
2019-02-17T14:08:33.304Z,100873.20
2019-02-17T14:11:01.901Z,100876.05
2019-02-17T14:13:30.485Z,100871.09
2019-02-17T14:15:59.069Z,100871.39
2019-02-17T14:18:27.985Z,100865.45
2019-02-17T14:20:56.572Z,100861.84
2019-02-17T14:23:25.157Z,100861.33
2019-02-17T14:25:53.747Z,100861.41
2019-02-17T14:28:22.300Z,100855.86
2019-02-17T14:30:51.192Z,100862.73
2019-02-17T14:33:19.787Z,100859.15
2019-02-17T14:35:48.644Z,100854.98
2019-02-17T14:38:17.202Z,100858.52
2019-02-17T14:40:45.870Z,100865.48
2019-02-17T14:43:14.730Z,100853.26
2019-02-17T14:45:43.616Z,100851.43
2019-02-17T14:48:12.209Z,100841.20
2019-02-17T14:50:40.791Z,100841.62
2019-02-17T14:53:09.347Z,100839.77
2019-02-17T14:55:38.080Z,100837.95
2019-02-17T14:58:06.646Z,100835.70
2019-02-17T15:00:35.545Z,100834.56
2019-02-17T15:03:05.143Z,100828.26
2019-02-17T15:05:34.527Z,100828.16
2019-02-17T15:08:03.755Z,100830.88
2019-02-17T15:10:33.399Z,100832.66
2019-02-17T15:13:03.030Z,100828.73
2019-02-17T15:15:32.452Z,100834.38
2019-02-17T15:18:01.752Z,100834.39
2019-02-17T15:20:30.686Z,100830.81
2019-02-17T15:22:59.660Z,100829.28
2019-02-17T15:25:29.010Z,100827.99
2019-02-17T15:27:58.719Z,100826.34
2019-02-17T15:30:28.354Z,100829.55
2019-02-17T15:33:03.935Z,100824.06
2019-02-17T15:35:29.005Z,100827.91
2019-02-17T15:37:57.994Z,100820.35
2019-02-17T15:40:27.614Z,100822.90
2019-02-17T15:42:56.873Z,100820.13
2019-02-17T15:45:25.503Z,100819.53
2019-02-17T15:47:55.104Z,100823.64
2019-02-17T15:50:24.802Z,100820.59
2019-02-17T15:52:54.398Z,100823.28
2019-02-17T15:55:25.609Z,100816.95
2019-02-17T15:57:54.604Z,100825.00
2019-02-17T16:00:23.871Z,100829.96
2019-02-17T16:02:53.537Z,100828.30
2019-02-17T16:05:23.307Z,100838.30
2019-02-17T16:07:52.962Z,100832.80
2019-02-17T16:10:22.674Z,100836.30
2019-02-17T16:12:52.005Z,100832.83
2019-02-17T16:15:21.731Z,100828.80
2019-02-17T16:17:51.088Z,100827.80
2019-02-17T16:20:20.819Z,100829.31
2019-02-17T16:22:49.783Z,100835.52
2019-02-17T16:25:19.093Z,100835.09
2019-02-17T16:27:48.841Z,100838.30
2019-02-17T16:30:18.522Z,100840.14
2019-02-17T16:32:48.226Z,100836.66
2019-02-17T16:35:17.985Z,100838.52
2019-02-17T16:37:47.653Z,100839.36
2019-02-17T16:40:17.375Z,100835.38
2019-02-17T16:42:47.115Z,100839.05
2019-02-17T16:45:16.792Z,100836.77
2019-02-17T16:47:46.888Z,100839.27
2019-02-17T16:50:18.172Z,100846.38
2019-02-17T16:52:46.735Z,100838.77
2019-02-17T16:55:15.301Z,100842.73
2019-02-17T16:57:44.749Z,100841.24
2019-02-17T17:00:18.746Z,100841.88
2019-02-17T17:02:48.495Z,100844.52
2019-02-17T17:05:17.857Z,100840.17
2019-02-17T17:07:47.271Z,100838.75
2019-02-17T17:10:16.998Z,100842.66
2019-02-17T17:12:46.821Z,100843.33
2019-02-17T17:15:16.594Z,100846.61
2019-02-17T17:17:46.306Z,100841.77
2019-02-17T17:20:16.086Z,100845.62
2019-02-17T17:22:45.731Z,100849.00
2019-02-17T17:25:15.437Z,100849.42
2019-02-17T17:27:44.701Z,100848.95
2019-02-17T17:30:14.565Z,100845.33
2019-02-17T17:32:44.262Z,100852.33
2019-02-17T17:35:14.026Z,100853.03
2019-02-17T17:37:43.686Z,100848.74
2019-02-17T17:40:13.415Z,100845.16
2019-02-17T17:42:42.457Z,100848.13
2019-02-17T17:45:13.225Z,100844.23
2019-02-17T17:47:42.248Z,100838.05
2019-02-17T17:50:13.098Z,100847.31
2019-02-17T17:52:42.768Z,100844.33
2019-02-17T17:55:12.440Z,100849.70
2019-02-17T17:57:42.033Z,100853.13
2019-02-17T18:00:13.738Z,100853.31
2019-02-17T18:02:43.358Z,100856.42
2019-02-17T18:05:13.108Z,100846.46
2019-02-17T18:07:43.244Z,100851.38
2019-02-17T18:10:14.156Z,100843.25
2019-02-17T18:12:43.709Z,100850.69
2019-02-17T18:15:13.488Z,100844.09
2019-02-17T18:17:53.456Z,100843.58
2019-02-17T18:20:14.958Z,100850.31
2019-02-17T18:22:44.686Z,100845.67
2019-02-17T18:25:14.033Z,100849.70
2019-02-17T18:27:43.746Z,100854.02
2019-02-17T18:30:16.376Z,100852.52
2019-02-17T18:32:45.740Z,100854.43
2019-02-17T18:35:19.786Z,100852.22
2019-02-17T18:37:46.519Z,100855.56
2019-02-17T18:40:16.117Z,100848.78
2019-02-17T18:42:45.852Z,100847.23
2019-02-17T18:45:15.132Z,100848.05
2019-02-17T18:47:43.677Z,100846.07
2019-02-17T18:50:12.926Z,100848.88
2019-02-17T18:52:41.478Z,100858.55
2019-02-17T18:55:11.815Z,100855.23
2019-02-17T18:57:49.636Z,100861.64
2019-02-17T19:00:13.235Z,100860.50
2019-02-17T19:02:41.864Z,100870.58
2019-02-17T19:05:11.143Z,100856.88
2019-02-17T19:07:39.730Z,100864.75
2019-02-17T19:10:09.883Z,100859.47
2019-02-17T19:12:38.457Z,100861.49
2019-02-17T19:15:08.117Z,100862.30
2019-02-17T19:17:36.679Z,100861.34
2019-02-17T19:20:06.378Z,100857.88
2019-02-17T19:22:34.957Z,100849.58
2019-02-17T19:25:03.577Z,100850.30
2019-02-17T19:27:32.151Z,100847.97
2019-02-17T19:30:00.741Z,100848.97
2019-02-17T19:32:29.297Z,100852.13
2019-02-17T19:34:57.846Z,100855.81
2019-02-17T19:37:26.433Z,100853.92
2019-02-17T19:39:54.990Z,100857.64
2019-02-17T19:42:23.551Z,100860.27
2019-02-17T19:44:52.146Z,100869.77
2019-02-17T19:47:20.697Z,100868.27
2019-02-17T19:49:49.264Z,100872.67
2019-02-17T19:52:17.848Z,100873.84
2019-02-17T19:54:46.400Z,100884.50
2019-02-17T19:57:14.982Z,100884.14
2019-02-17T19:59:43.574Z,100884.67
2019-02-17T20:02:12.258Z,100882.21
2019-02-17T20:04:59.829Z,100884.37
2019-02-17T20:07:28.410Z,100879.58
2019-02-17T20:09:56.964Z,100880.15
2019-02-17T20:12:25.564Z,100884.16
2019-02-17T20:14:54.414Z,100889.70
2019-02-17T20:17:23.034Z,100886.98
2019-02-17T20:19:51.620Z,100890.48
2019-02-17T20:22:20.253Z,100890.63
2019-02-17T20:24:48.826Z,100892.95
2019-02-17T20:27:17.429Z,100891.47
2019-02-17T20:29:45.990Z,100892.30
2019-02-17T20:32:14.550Z,100893.31
2019-02-17T20:34:43.149Z,100896.25
2019-02-17T20:37:11.703Z,100905.30
2019-02-17T20:39:41.337Z,100904.78
2019-02-17T20:42:10.029Z,100902.48
2019-02-17T20:44:38.874Z,100901.84
2019-02-17T20:47:07.434Z,100906.75
2019-02-17T20:49:36.414Z,100905.45
2019-02-17T20:52:05.762Z,100911.02
2019-02-17T20:54:35.303Z,100911.30
2019-02-17T20:57:05.284Z,100910.95
2019-02-17T20:59:34.364Z,100910.23
2019-02-17T21:02:04.026Z,100907.14
2019-02-17T21:04:33.734Z,100911.10
2019-02-17T21:07:03.477Z,100910.44
2019-02-17T21:09:33.281Z,100911.94
2019-02-17T21:12:02.667Z,100916.80
2019-02-17T21:14:32.461Z,100918.06
2019-02-17T21:17:01.901Z,100920.37
2019-02-17T21:19:31.489Z,100923.31
2019-02-17T21:22:00.847Z,100922.94
2019-02-17T21:24:30.510Z,100924.66
2019-02-17T21:27:00.137Z,100928.31
2019-02-17T21:29:29.518Z,100925.92
2019-02-17T21:31:58.806Z,100927.72
2019-02-17T21:34:28.074Z,100926.78
2019-02-17T21:36:57.648Z,100924.58
2019-02-17T21:39:27.051Z,100928.91
2019-02-17T21:41:57.441Z,100933.11
2019-02-17T21:44:27.209Z,100926.98
2019-02-17T21:46:56.564Z,100929.80
2019-02-17T21:49:25.779Z,100925.09
2019-02-17T21:51:55.207Z,100925.97
2019-02-17T21:54:24.570Z,100927.58
2019-02-17T21:56:53.835Z,100920.47
2019-02-17T21:59:22.824Z,100917.91
2019-02-17T22:01:51.800Z,100922.53
2019-02-17T22:04:20.421Z,100921.22
2019-02-17T22:06:49.788Z,100912.55
2019-02-17T22:09:18.780Z,100914.30
2019-02-17T22:11:48.177Z,100915.73
2019-02-17T22:14:17.858Z,100917.06
2019-02-17T22:16:47.761Z,100915.81
2019-02-17T22:19:17.214Z,100913.23
2019-02-17T22:21:47.079Z,100910.69
2019-02-17T22:24:16.817Z,100908.69
2019-02-17T22:26:46.097Z,100904.68
2019-02-17T22:29:15.818Z,100906.88
2019-02-17T22:31:45.529Z,100909.39
2019-02-17T22:34:15.282Z,100911.45
2019-02-17T22:36:44.948Z,100904.48
2019-02-17T22:39:14.392Z,100912.59
2019-02-17T22:41:43.760Z,100910.75
2019-02-17T22:44:13.365Z,100906.71
2019-02-17T22:46:43.101Z,100911.92
2019-02-17T22:49:12.825Z,100909.23
2019-02-17T22:51:42.333Z,100909.09
2019-02-17T22:54:11.857Z,100908.95
2019-02-17T22:56:41.536Z,100906.06
2019-02-17T22:59:11.161Z,100906.66
2019-02-17T23:01:41.011Z,100907.27
2019-02-17T23:04:10.571Z,100908.53
2019-02-17T23:06:40.199Z,100909.31
2019-02-17T23:09:09.865Z,100912.95
2019-02-17T23:11:39.469Z,100909.33
2019-02-17T23:14:08.922Z,100905.64
2019-02-17T23:16:38.137Z,100906.84
2019-02-17T23:19:07.782Z,100913.06
2019-02-17T23:21:37.455Z,100915.16
2019-02-17T23:24:07.101Z,100917.17
2019-02-17T23:26:36.815Z,100912.67
2019-02-17T23:29:06.564Z,100919.02
2019-02-17T23:31:36.145Z,100914.38
2019-02-17T23:34:06.028Z,100913.70
2019-02-17T23:36:35.373Z,100920.45
2019-02-17T23:39:05.837Z,100922.42
2019-02-17T23:41:34.802Z,100925.33
2019-02-17T23:44:04.582Z,100925.66
2019-02-17T23:46:33.925Z,100923.32
2019-02-17T23:49:03.227Z,100923.52
2019-02-17T23:51:33.088Z,100922.67
2019-02-17T23:54:02.738Z,100919.73
2019-02-17T23:56:32.965Z,100923.12
2019-02-17T23:59:02.549Z,100934.50
